Cabot, Arkansas
Current Conditions -  °F | °C
As of 6:58 PM on Tuesday 27 Jan 2015 (Local Time) from KLRF Reporting Station
Clear Clear  
Wind Chill: 47°   Ceiling: Unl
Heat Index: 47°   Visibility: 10mi
Dew Point: 36°   Wind: 2mph
Humidity: 66%   Direction: 50°NE
Pressure: 30.14"   Gusts: NA
Location:  34.97°N, 92.02°W
Report Text: KLRF 280058Z AUTO 05002KT 10SM CLR 08/02 A3014 RMK AO2 SLP211 T00840023
Loading
Personal Weather Stations






























Interactive Weather Map New forecast layout! Learn more

10-Day Weather Forecast

Advertisements
Track Severe Weather on mobile